sensor_id;sensor_type;location;lat;lon;timestamp;pressure;altitude;pressure_sealevel;temperature;humidity
51359;BME280;37448;51.588;7.248;2023-03-19T00:01:06;100548.34;;;8.11;92.70
51359;BME280;37448;51.588;7.248;2023-03-19T00:03:07;100538.72;;;8.16;93.28
51359;BME280;37448;51.588;7.248;2023-03-19T00:05:07;100543.00;;;8.20;92.66
51359;BME280;37448;51.588;7.248;2023-03-19T00:07:08;100542.13;;;8.21;91.83
51359;BME280;37448;51.588;7.248;2023-03-19T00:09:09;100544.63;;;8.27;92.49
51359;BME280;37448;51.588;7.248;2023-03-19T00:11:11;100548.91;;;8.33;93.26
51359;BME280;37448;51.588;7.248;2023-03-19T00:13:12;100545.31;;;8.40;93.29
51359;BME280;37448;51.588;7.248;2023-03-19T00:15:12;100540.09;;;8.42;92.88
51359;BME280;37448;51.588;7.248;2023-03-19T00:17:14;100540.03;;;8.50;93.73
51359;BME280;37448;51.588;7.248;2023-03-19T00:19:15;100538.28;;;8.47;92.38
51359;BME280;37448;51.588;7.248;2023-03-19T00:21:15;100535.63;;;8.55;93.33
51359;BME280;37448;51.588;7.248;2023-03-19T00:23:16;100526.09;;;8.54;92.61
51359;BME280;37448;51.588;7.248;2023-03-19T00:25:17;100526.03;;;8.58;93.45
51359;BME280;37448;51.588;7.248;2023-03-19T00:27:17;100521.72;;;8.57;93.26
51359;BME280;37448;51.588;7.248;2023-03-19T00:29:17;100526.94;;;8.54;92.91
51359;BME280;37448;51.588;7.248;2023-03-19T00:31:18;100531.25;;;8.55;93.68
51359;BME280;37448;51.588;7.248;2023-03-19T00:33:19;100522.59;;;8.55;93.14
51359;BME280;37448;51.588;7.248;2023-03-19T00:35:20;100528.69;;;8.54;93.38
51359;BME280;37448;51.588;7.248;2023-03-19T00:37:21;100525.22;;;8.53;93.44
51359;BME280;37448;51.588;7.248;2023-03-19T00:39:21;100540.00;;;8.53;93.72
51359;BME280;37448;51.588;7.248;2023-03-19T00:41:22;100549.53;;;8.52;93.61
51359;BME280;37448;51.588;7.248;2023-03-19T00:43:23;100555.59;;;8.53;93.90
51359;BME280;37448;51.588;7.248;2023-03-19T00:45:24;100551.28;;;8.50;93.76
51359;BME280;37448;51.588;7.248;2023-03-19T00:47:24;100557.28;;;8.55;94.70
51359;BME280;37448;51.588;7.248;2023-03-19T00:49:25;100562.47;;;8.58;94.16
51359;BME280;37448;51.588;7.248;2023-03-19T00:51:25;100573.69;;;8.62;94.16
51359;BME280;37448;51.588;7.248;2023-03-19T00:53:26;100589.34;;;8.59;93.70
51359;BME280;37448;51.588;7.248;2023-03-19T00:55:26;100583.31;;;8.58;92.81
51359;BME280;37448;51.588;7.248;2023-03-19T00:57:26;100578.88;;;8.62;93.22
51359;BME280;37448;51.588;7.248;2023-03-19T00:59:27;100572.75;;;8.68;93.67
51359;BME280;37448;51.588;7.248;2023-03-19T01:01:27;100558.84;;;8.67;93.28
51359;BME280;37448;51.588;7.248;2023-03-19T01:03:28;100545.81;;;8.69;93.90
51359;BME280;37448;51.588;7.248;2023-03-19T01:05:29;100551.88;;;8.71;94.69
51359;BME280;37448;51.588;7.248;2023-03-19T01:07:30;100547.59;;;8.67;94.38
51359;BME280;37448;51.588;7.248;2023-03-19T01:09:30;100542.47;;;8.60;94.01
51359;BME280;37448;51.588;7.248;2023-03-19T01:11:30;100538.16;;;8.59;94.42
51359;BME280;37448;51.588;7.248;2023-03-19T01:13:31;100538.16;;;8.58;94.99
51359;BME280;37448;51.588;7.248;2023-03-19T01:15:37;100539.09;;;8.54;94.50
51359;BME280;37448;51.588;7.248;2023-03-19T01:17:38;100543.47;;;8.50;95.03
51359;BME280;37448;51.588;7.248;2023-03-19T01:19:39;100542.66;;;8.45;94.55
51359;BME280;37448;51.588;7.248;2023-03-19T01:21:40;100546.19;;;8.41;94.72
51359;BME280;37448;51.588;7.248;2023-03-19T01:23:45;100542.84;;;8.32;94.84
51359;BME280;37448;51.588;7.248;2023-03-19T01:25:45;100543.78;;;8.25;94.59
51359;BME280;37448;51.588;7.248;2023-03-19T01:27:46;100545.59;;;8.20;94.39
51359;BME280;37448;51.588;7.248;2023-03-19T01:29:49;100537.88;;;8.14;94.82
51359;BME280;37448;51.588;7.248;2023-03-19T01:32:22;100542.28;;;8.09;95.15
51359;BME280;37448;51.588;7.248;2023-03-19T01:34:41;100546.66;;;8.03;94.73
51359;BME280;37448;51.588;7.248;2023-03-19T01:36:43;100543.22;;;8.01;94.93
51359;BME280;37448;51.588;7.248;2023-03-19T01:38:45;100540.66;;;8.00;94.88
51359;BME280;37448;51.588;7.248;2023-03-19T01:40:48;100536.34;;;7.97;94.99
51359;BME280;37448;51.588;7.248;2023-03-19T01:43:35;100538.09;;;7.95;94.93
51359;BME280;37448;51.588;7.248;2023-03-19T01:45:35;100535.56;;;7.92;95.11
51359;BME280;37448;51.588;7.248;2023-03-19T01:47:55;100539.03;;;7.91;95.41
51359;BME280;37448;51.588;7.248;2023-03-19T01:50:25;100545.97;;;7.90;95.35
51359;BME280;37448;51.588;7.248;2023-03-19T01:52:56;100545.19;;;7.81;95.07
51359;BME280;37448;51.588;7.248;2023-03-19T01:55:16;100542.63;;;7.78;94.74
51359;BME280;37448;51.588;7.248;2023-03-19T01:57:23;100546.16;;;7.75;94.89
51359;BME280;37448;51.588;7.248;2023-03-19T01:59:51;100541.88;;;7.69;95.08
51359;BME280;37448;51.588;7.248;2023-03-19T02:02:05;100528.06;;;7.64;95.13
51359;BME280;37448;51.588;7.248;2023-03-19T02:04:08;100530.72;;;7.61;94.65
51359;BME280;37448;51.588;7.248;2023-03-19T02:06:10;100534.19;;;7.57;95.20
51359;BME280;37448;51.588;7.248;2023-03-19T02:08:14;100528.16;;;7.55;95.15
51359;BME280;37448;51.588;7.248;2023-03-19T02:10:16;100529.06;;;7.52;94.68
51359;BME280;37448;51.588;7.248;2023-03-19T02:12:17;100530.81;;;7.50;94.84
51359;BME280;37448;51.588;7.248;2023-03-19T02:14:17;100530.00;;;7.46;94.91
51359;BME280;37448;51.588;7.248;2023-03-19T02:16:18;100519.63;;;7.43;94.90
51359;BME280;37448;51.588;7.248;2023-03-19T02:18:20;100521.38;;;7.40;94.52
51359;BME280;37448;51.588;7.248;2023-03-19T02:20:34;100525.78;;;7.36;94.46
51359;BME280;37448;51.588;7.248;2023-03-19T02:22:40;100513.66;;;7.33;94.72
51359;BME280;37448;51.588;7.248;2023-03-19T02:25:09;100519.75;;;7.31;94.79
51359;BME280;37448;51.588;7.248;2023-03-19T02:27:11;100527.56;;;7.28;94.56
51359;BME280;37448;51.588;7.248;2023-03-19T02:29:15;100522.41;;;7.26;94.96
51359;BME280;37448;51.588;7.248;2023-03-19T02:31:19;100532.78;;;7.25;95.28
51359;BME280;37448;51.588;7.248;2023-03-19T02:33:20;100516.38;;;7.23;95.15
51359;BME280;37448;51.588;7.248;2023-03-19T02:35:20;100531.94;;;7.23;95.07
51359;BME280;37448;51.588;7.248;2023-03-19T02:37:26;100522.47;;;7.18;95.01
51359;BME280;37448;51.588;7.248;2023-03-19T02:39:34;100522.47;;;7.18;95.06
51359;BME280;37448;51.588;7.248;2023-03-19T02:41:38;100517.28;;;7.18;95.39
51359;BME280;37448;51.588;7.248;2023-03-19T02:43:41;100520.75;;;7.17;95.44
51359;BME280;37448;51.588;7.248;2023-03-19T02:45:42;100525.06;;;7.18;95.12
51359;BME280;37448;51.588;7.248;2023-03-19T02:47:42;100525.94;;;7.17;95.50
51359;BME280;37448;51.588;7.248;2023-03-19T02:49:43;100535.47;;;7.18;95.41
51359;BME280;37448;51.588;7.248;2023-03-19T02:51:43;100514.69;;;7.18;95.53
51359;BME280;37448;51.588;7.248;2023-03-19T02:53:44;100521.66;;;7.13;94.96
51359;BME280;37448;51.588;7.248;2023-03-19T02:55:45;100525.94;;;7.17;95.72
51359;BME280;37448;51.588;7.248;2023-03-19T02:57:45;100528.50;;;7.19;95.98
51359;BME280;37448;51.588;7.248;2023-03-19T02:59:46;100518.97;;;7.21;95.83
51359;BME280;37448;51.588;7.248;2023-03-19T03:01:46;100529.38;;;7.20;95.96
51359;BME280;37448;51.588;7.248;2023-03-19T03:03:47;100519.94;;;7.12;95.01
51359;BME280;37448;51.588;7.248;2023-03-19T03:05:47;100514.69;;;7.18;95.39
51359;BME280;37448;51.588;7.248;2023-03-19T03:07:48;100518.97;;;7.23;95.65
51359;BME280;37448;51.588;7.248;2023-03-19T03:09:49;100518.09;;;7.24;95.71
51359;BME280;37448;51.588;7.248;2023-03-19T03:11:50;100523.25;;;7.27;95.83
51359;BME280;37448;51.588;7.248;2023-03-19T03:13:50;100516.28;;;7.29;95.87
51359;BME280;37448;51.588;7.248;2023-03-19T03:15:51;100517.19;;;7.29;95.71
51359;BME280;37448;51.588;7.248;2023-03-19T03:17:52;100517.09;;;7.34;96.57
51359;BME280;37448;51.588;7.248;2023-03-19T03:19:53;100520.56;;;7.36;96.44
51359;BME280;37448;51.588;7.248;2023-03-19T03:21:53;100527.47;;;7.39;96.05
51359;BME280;37448;51.588;7.248;2023-03-19T03:23:54;100517.94;;;7.39;96.00
51359;BME280;37448;51.588;7.248;2023-03-19T03:25:55;100522.25;;;7.40;95.89
51359;BME280;37448;51.588;7.248;2023-03-19T03:27:55;100517.03;;;7.42;95.90
51359;BME280;37448;51.588;7.248;2023-03-19T03:29:56;100530.03;;;7.43;96.38
51359;BME280;37448;51.588;7.248;2023-03-19T03:31:56;100526.50;;;7.46;96.36
51359;BME280;37448;51.588;7.248;2023-03-19T03:33:57;100526.50;;;7.47;96.48
51359;BME280;37448;51.588;7.248;2023-03-19T03:35:57;100530.00;;;7.46;95.86
51359;BME280;37448;51.588;7.248;2023-03-19T03:37:58;100529.09;;;7.49;96.36
51359;BME280;37448;51.588;7.248;2023-03-19T03:39:58;100528.19;;;7.52;96.06
51359;BME280;37448;51.588;7.248;2023-03-19T03:41:59;100531.66;;;7.51;96.55
51359;BME280;37448;51.588;7.248;2023-03-19T03:44:00;100531.66;;;7.52;96.16
51359;BME280;37448;51.588;7.248;2023-03-19T03:46:00;100528.16;;;7.56;96.81
51359;BME280;37448;51.588;7.248;2023-03-19T03:48:01;100526.41;;;7.60;96.71
51359;BME280;37448;51.588;7.248;2023-03-19T03:50:03;100525.47;;;7.63;96.97
51359;BME280;37448;51.588;7.248;2023-03-19T03:52:04;100526.31;;;7.65;96.89
51359;BME280;37448;51.588;7.248;2023-03-19T03:54:06;100531.53;;;7.66;96.78
51359;BME280;37448;51.588;7.248;2023-03-19T03:56:07;100530.63;;;7.66;97.01
51359;BME280;37448;51.588;7.248;2023-03-19T03:58:07;100534.13;;;7.66;96.97
51359;BME280;37448;51.588;7.248;2023-03-19T04:00:08;100533.19;;;7.69;96.95
51359;BME280;37448;51.588;7.248;2023-03-19T04:02:18;100529.72;;;7.70;96.98
51359;BME280;37448;51.588;7.248;2023-03-19T04:04:18;100532.31;;;7.71;96.87
51359;BME280;37448;51.588;7.248;2023-03-19T04:06:21;100534.91;;;7.73;97.33
51359;BME280;37448;51.588;7.248;2023-03-19T04:08:31;100534.88;;;7.74;96.94
51359;BME280;37448;51.588;7.248;2023-03-19T04:10:32;100534.88;;;7.74;97.42
51359;BME280;37448;51.588;7.248;2023-03-19T04:12:36;100538.31;;;7.76;96.98
51359;BME280;37448;51.588;7.248;2023-03-19T04:14:37;100538.31;;;7.76;96.97
51359;BME280;37448;51.588;7.248;2023-03-19T04:16:37;100536.59;;;7.75;97.66
51359;BME280;37448;51.588;7.248;2023-03-19T04:18:38;100540.03;;;7.78;97.19
51359;BME280;37448;51.588;7.248;2023-03-19T04:20:38;100540.91;;;7.78;97.22
51359;BME280;37448;51.588;7.248;2023-03-19T04:22:40;100540.03;;;7.79;97.14
51359;BME280;37448;51.588;7.248;2023-03-19T04:24:40;100540.03;;;7.79;97.28
51359;BME280;37448;51.588;7.248;2023-03-19T04:26:41;100548.69;;;7.80;97.13
51359;BME280;37448;51.588;7.248;2023-03-19T04:28:41;100543.47;;;7.80;97.42
51359;BME280;37448;51.588;7.248;2023-03-19T04:30:42;100542.63;;;7.79;97.55
51359;BME280;37448;51.588;7.248;2023-03-19T04:32:44;100547.84;;;7.79;98.00
51359;BME280;37448;51.588;7.248;2023-03-19T04:34:45;100543.50;;;7.78;97.99
51359;BME280;37448;51.588;7.248;2023-03-19T04:36:46;100552.19;;;7.75;97.76
51359;BME280;37448;51.588;7.248;2023-03-19T04:38:46;100556.53;;;7.76;97.21
51359;BME280;37448;51.588;7.248;2023-03-19T04:40:47;100560.03;;;7.71;96.97
51359;BME280;37448;51.588;7.248;2023-03-19T04:42:47;100559.16;;;7.75;97.38
51359;BME280;37448;51.588;7.248;2023-03-19T04:45:01;100560.03;;;7.74;97.51
51359;BME280;37448;51.588;7.248;2023-03-19T04:47:03;100566.06;;;7.74;97.15
51359;BME280;37448;51.588;7.248;2023-03-19T04:49:11;100566.06;;;7.74;97.67
51359;BME280;37448;51.588;7.248;2023-03-19T04:51:12;100573.00;;;7.75;97.37
51359;BME280;37448;51.588;7.248;2023-03-19T04:53:13;100572.97;;;7.79;97.59
51359;BME280;37448;51.588;7.248;2023-03-19T04:55:13;100569.47;;;7.80;97.63
51359;BME280;37448;51.588;7.248;2023-03-19T04:57:27;100578.13;;;7.82;97.97
51359;BME280;37448;51.588;7.248;2023-03-19T04:59:29;100578.13;;;7.82;98.06
51359;BME280;37448;51.588;7.248;2023-03-19T05:01:30;100572.03;;;7.84;97.99
51359;BME280;37448;51.588;7.248;2023-03-19T05:03:33;100580.72;;;7.83;97.69
51359;BME280;37448;51.588;7.248;2023-03-19T05:05:34;100582.44;;;7.83;97.73
51359;BME280;37448;51.588;7.248;2023-03-19T05:07:39;100581.59;;;7.84;97.75
51359;BME280;37448;51.588;7.248;2023-03-19T05:09:40;100589.34;;;7.85;97.66
51359;BME280;37448;51.588;7.248;2023-03-19T05:11:43;100589.41;;;7.82;97.75
51359;BME280;37448;51.588;7.248;2023-03-19T05:13:48;100578.13;;;7.83;97.57
51359;BME280;37448;51.588;7.248;2023-03-19T05:15:52;100579.84;;;7.86;97.62
51359;BME280;37448;51.588;7.248;2023-03-19T05:17:53;100579.84;;;7.83;97.18
51359;BME280;37448;51.588;7.248;2023-03-19T05:19:59;100575.50;;;7.83;96.90
51359;BME280;37448;51.588;7.248;2023-03-19T05:22:00;100581.59;;;7.84;97.61
51359;BME280;37448;51.588;7.248;2023-03-19T05:24:02;100579.84;;;7.84;97.63
51359;BME280;37448;51.588;7.248;2023-03-19T05:26:07;100579.00;;;7.81;97.50
51359;BME280;37448;51.588;7.248;2023-03-19T05:28:27;100585.97;;;7.79;96.48
51359;BME280;37448;51.588;7.248;2023-03-19T05:30:28;100590.25;;;7.83;96.94
51359;BME280;37448;51.588;7.248;2023-03-19T05:32:38;100593.72;;;7.82;96.15
51359;BME280;37448;51.588;7.248;2023-03-19T05:34:42;100594.59;;;7.82;96.68
51359;BME280;37448;51.588;7.248;2023-03-19T05:36:43;100594.59;;;7.82;96.81
51359;BME280;37448;51.588;7.248;2023-03-19T05:38:48;100595.47;;;7.80;96.00
51359;BME280;37448;51.588;7.248;2023-03-19T05:40:56;100591.16;;;7.79;96.56
51359;BME280;37448;51.588;7.248;2023-03-19T05:43:09;100580.75;;;7.79;96.50
51359;BME280;37448;51.588;7.248;2023-03-19T05:45:10;100589.41;;;7.81;96.79
51359;BME280;37448;51.588;7.248;2023-03-19T05:47:19;100588.56;;;7.79;95.95
51359;BME280;37448;51.588;7.248;2023-03-19T05:49:24;100588.53;;;7.82;96.48
51359;BME280;37448;51.588;7.248;2023-03-19T05:51:25;100600.63;;;7.86;96.85
51359;BME280;37448;51.588;7.248;2023-03-19T05:53:25;100601.47;;;7.86;95.99
51359;BME280;37448;51.588;7.248;2023-03-19T05:55:45;100599.69;;;7.92;96.05
51359;BME280;37448;51.588;7.248;2023-03-19T05:57:47;100603.09;;;7.98;96.44
51359;BME280;37448;51.588;7.248;2023-03-19T05:59:52;100611.66;;;8.07;97.08
51359;BME280;37448;51.588;7.248;2023-03-19T06:02:12;100611.66;;;8.08;96.43
51359;BME280;37448;51.588;7.248;2023-03-19T06:04:13;100619.38;;;8.16;97.62
51359;BME280;37448;51.588;7.248;2023-03-19T06:06:13;100614.97;;;8.19;96.96
51359;BME280;37448;51.588;7.248;2023-03-19T06:08:18;100623.59;;;8.25;96.85
51359;BME280;37448;51.588;7.248;2023-03-19T06:10:29;100624.44;;;8.25;97.23
51359;BME280;37448;51.588;7.248;2023-03-19T06:12:32;100624.41;;;8.28;97.23
51359;BME280;37448;51.588;7.248;2023-03-19T06:14:35;100633.94;;;8.29;97.22
51359;BME280;37448;51.588;7.248;2023-03-19T06:16:55;100629.59;;;8.28;97.77
51359;BME280;37448;51.588;7.248;2023-03-19T06:18:56;100638.28;;;8.29;97.82
51359;BME280;37448;51.588;7.248;2023-03-19T06:20:57;100633.03;;;8.30;97.92
51359;BME280;37448;51.588;7.248;2023-03-19T06:22:58;100632.22;;;8.30;98.06
51359;BME280;37448;51.588;7.248;2023-03-19T06:24:58;100634.78;;;8.31;98.42
51359;BME280;37448;51.588;7.248;2023-03-19T06:26:58;100642.56;;;8.33;98.66
51359;BME280;37448;51.588;7.248;2023-03-19T06:28:59;100637.38;;;8.33;98.59
51359;BME280;37448;51.588;7.248;2023-03-19T06:31:00;100644.31;;;8.32;98.26
51359;BME280;37448;51.588;7.248;2023-03-19T06:33:19;100647.78;;;8.35;99.12
51359;BME280;37448;51.588;7.248;2023-03-19T06:35:20;100657.28;;;8.36;98.46
51359;BME280;37448;51.588;7.248;2023-03-19T06:37:22;100650.34;;;8.36;98.59
51359;BME280;37448;51.588;7.248;2023-03-19T06:39:23;100656.38;;;8.38;98.99
51359;BME280;37448;51.588;7.248;2023-03-19T06:41:23;100643.38;;;8.40;98.96
51359;BME280;37448;51.588;7.248;2023-03-19T06:43:24;100654.63;;;8.40;99.31
51359;BME280;37448;51.588;7.248;2023-03-19T06:45:25;100656.34;;;8.43;99.06
51359;BME280;37448;51.588;7.248;2023-03-19T06:47:25;100658.06;;;8.44;99.23
51359;BME280;37448;51.588;7.248;2023-03-19T06:49:26;100652.84;;;8.45;99.45
51359;BME280;37448;51.588;7.248;2023-03-19T06:51:26;100650.22;;;8.47;99.22
51359;BME280;37448;51.588;7.248;2023-03-19T06:53:27;100666.69;;;8.47;99.45
51359;BME280;37448;51.588;7.248;2023-03-19T06:55:27;100664.94;;;8.48;99.13
51359;BME280;37448;51.588;7.248;2023-03-19T06:57:30;100665.81;;;8.50;99.15
51359;BME280;37448;51.588;7.248;2023-03-19T06:59:30;100665.81;;;8.50;99.15
51359;BME280;37448;51.588;7.248;2023-03-19T07:01:30;100664.94;;;8.51;99.66
51359;BME280;37448;51.588;7.248;2023-03-19T07:03:31;100661.44;;;8.52;99.65
51359;BME280;37448;51.588;7.248;2023-03-19T07:05:31;100667.50;;;8.54;100.00
51359;BME280;37448;51.588;7.248;2023-03-19T07:07:32;100680.50;;;8.56;99.48
51359;BME280;37448;51.588;7.248;2023-03-19T07:09:32;100674.41;;;8.55;99.41
51359;BME280;37448;51.588;7.248;2023-03-19T07:11:33;100682.22;;;8.58;100.00
51359;BME280;37448;51.588;7.248;2023-03-19T07:13:33;100683.97;;;8.56;99.73
51359;BME280;37448;51.588;7.248;2023-03-19T07:15:33;100688.22;;;8.62;100.00
51359;BME280;37448;51.588;7.248;2023-03-19T07:17:35;100680.34;;;8.68;100.00
51359;BME280;37448;51.588;7.248;2023-03-19T07:19:35;100687.28;;;8.69;99.56
51359;BME280;37448;51.588;7.248;2023-03-19T07:21:36;100675.91;;;8.75;99.85
51359;BME280;37448;51.588;7.248;2023-03-19T07:23:36;100679.34;;;8.77;100.00
51359;BME280;37448;51.588;7.248;2023-03-19T07:25:36;100676.69;;;8.82;100.00
51359;BME280;37448;51.588;7.248;2023-03-19T07:27:37;100683.63;;;8.84;100.00
51359;BME280;37448;51.588;7.248;2023-03-19T07:29:37;100687.03;;;8.88;100.00
51359;BME280;37448;51.588;7.248;2023-03-19T07:31:38;100685.25;;;8.90;100.00
51359;BME280;37448;51.588;7.248;2023-03-19T07:33:38;100688.69;;;8.92;100.00
51359;BME280;37448;51.588;7.248;2023-03-19T07:35:39;100688.69;;;8.94;100.00
51359;BME280;37448;51.588;7.248;2023-03-19T07:37:40;100689.53;;;8.96;100.00
51359;BME280;37448;51.588;7.248;2023-03-19T07:39:41;100698.19;;;8.98;100.00
51359;BME280;37448;51.588;7.248;2023-03-19T07:41:41;100698.13;;;9.01;100.00
51359;BME280;37448;51.588;7.248;2023-03-19T07:43:47;100698.09;;;9.04;100.00
51359;BME280;37448;51.588;7.248;2023-03-19T07:45:47;100701.56;;;9.03;100.00
51359;BME280;37448;51.588;7.248;2023-03-19T07:47:49;100700.69;;;9.05;100.00
51359;BME280;37448;51.588;7.248;2023-03-19T07:49:50;100700.69;;;9.05;100.00
51359;BME280;37448;51.588;7.248;2023-03-19T07:51:51;100703.28;;;9.07;100.00
51359;BME280;37448;51.588;7.248;2023-03-19T07:53:51;100704.13;;;9.08;100.00
51359;BME280;37448;51.588;7.248;2023-03-19T07:55:52;100697.19;;;9.07;100.00
51359;BME280;37448;51.588;7.248;2023-03-19T07:57:52;100703.19;;;9.13;100.00
51359;BME280;37448;51.588;7.248;2023-03-19T07:59:52;100704.03;;;9.14;100.00
51359;BME280;37448;51.588;7.248;2023-03-19T08:01:53;100709.22;;;9.15;100.00
51359;BME280;37448;51.588;7.248;2023-03-19T08:03:53;100706.56;;;9.18;100.00
51359;BME280;37448;51.588;7.248;2023-03-19T08:05:53;100714.34;;;9.23;100.00
51359;BME280;37448;51.588;7.248;2023-03-19T08:07:54;100715.16;;;9.25;100.00
51359;BME280;37448;51.588;7.248;2023-03-19T08:09:54;100712.53;;;9.27;100.00
51359;BME280;37448;51.588;7.248;2023-03-19T08:11:56;100714.28;;;9.26;100.00
51359;BME280;37448;51.588;7.248;2023-03-19T08:13:57;100715.94;;;9.30;100.00
51359;BME280;37448;51.588;7.248;2023-03-19T08:15:57;100718.63;;;9.26;100.00
51359;BME280;37448;51.588;7.248;2023-03-19T08:17:59;100718.59;;;9.27;100.00
51359;BME280;37448;51.588;7.248;2023-03-19T08:19:59;100723.75;;;9.32;100.00
51359;BME280;37448;51.588;7.248;2023-03-19T08:22:00;100724.59;;;9.32;100.00
51359;BME280;37448;51.588;7.248;2023-03-19T08:24:00;100727.16;;;9.37;100.00
51359;BME280;37448;51.588;7.248;2023-03-19T08:26:00;100724.50;;;9.39;100.00
51359;BME280;37448;51.588;7.248;2023-03-19T08:28:01;100726.16;;;9.44;100.00
51359;BME280;37448;51.588;7.248;2023-03-19T08:30:03;100731.38;;;9.44;99.95
51359;BME280;37448;51.588;7.248;2023-03-19T08:32:04;100730.44;;;9.48;100.00
51359;BME280;37448;51.588;7.248;2023-03-19T08:34:04;100726.22;;;9.43;100.00
51359;BME280;37448;51.588;7.248;2023-03-19T08:36:06;100740.88;;;9.48;100.00
51359;BME280;37448;51.588;7.248;2023-03-19T08:38:07;100739.19;;;9.44;99.25
51359;BME280;37448;51.588;7.248;2023-03-19T08:40:08;100739.16;;;9.47;100.00
51359;BME280;37448;51.588;7.248;2023-03-19T08:42:08;100745.28;;;9.43;99.64
51359;BME280;37448;51.588;7.248;2023-03-19T08:44:09;100742.69;;;9.43;99.84
51359;BME280;37448;51.588;7.248;2023-03-19T08:46:09;100744.38;;;9.47;100.00
51359;BME280;37448;51.588;7.248;2023-03-19T08:48:10;100746.19;;;9.42;99.67
51359;BME280;37448;51.588;7.248;2023-03-19T08:50:11;100754.88;;;9.41;99.14
51359;BME280;37448;51.588;7.248;2023-03-19T08:52:11;100743.63;;;9.41;99.21
51359;BME280;37448;51.588;7.248;2023-03-19T08:54:12;100748.78;;;9.42;99.35
51359;BME280;37448;51.588;7.248;2023-03-19T08:56:12;100758.28;;;9.46;99.69
51359;BME280;37448;51.588;7.248;2023-03-19T08:58:13;100762.66;;;9.46;100.00
51359;BME280;37448;51.588;7.248;2023-03-19T09:00:14;100762.56;;;9.51;100.00
51359;BME280;37448;51.588;7.248;2023-03-19T09:02:14;100750.41;;;9.50;99.74
51359;BME280;37448;51.588;7.248;2023-03-19T09:04:15;100766.88;;;9.53;100.00
51359;BME280;37448;51.588;7.248;2023-03-19T09:06:15;100766.03;;;9.53;99.66
51359;BME280;37448;51.588;7.248;2023-03-19T09:08:16;100766.88;;;9.55;99.92
51359;BME280;37448;51.588;7.248;2023-03-19T09:10:16;100769.47;;;9.55;99.93
51359;BME280;37448;51.588;7.248;2023-03-19T09:12:17;100764.28;;;9.52;99.17
51359;BME280;37448;51.588;7.248;2023-03-19T09:14:18;100765.94;;;9.59;99.57
51359;BME280;37448;51.588;7.248;2023-03-19T09:16:19;100763.22;;;9.65;100.00
51359;BME280;37448;51.588;7.248;2023-03-19T09:18:20;100764.00;;;9.72;99.09
51359;BME280;37448;51.588;7.248;2023-03-19T09:20:23;100758.78;;;9.72;99.25
51359;BME280;37448;51.588;7.248;2023-03-19T09:22:23;100760.44;;;9.77;98.21
51359;BME280;37448;51.588;7.248;2023-03-19T09:24:24;100762.00;;;9.86;97.43
51359;BME280;37448;51.588;7.248;2023-03-19T09:26:25;100756.66;;;9.94;98.48
51359;BME280;37448;51.588;7.248;2023-03-19T09:28:25;100757.31;;;10.07;98.52
51359;BME280;37448;51.588;7.248;2023-03-19T09:30:26;100764.06;;;10.19;98.78
51359;BME280;37448;51.588;7.248;2023-03-19T09:32:26;100767.28;;;10.33;99.48
51359;BME280;37448;51.588;7.248;2023-03-19T09:34:27;100763.72;;;10.38;97.72
51359;BME280;37448;51.588;7.248;2023-03-19T09:36:28;100773.88;;;10.56;98.23
51359;BME280;37448;51.588;7.248;2023-03-19T09:38:28;100766.66;;;10.68;98.14
51359;BME280;37448;51.588;7.248;2023-03-19T09:40:40;100772.63;;;10.76;97.08
51359;BME280;37448;51.588;7.248;2023-03-19T09:43:04;100773.31;;;10.83;97.69
51359;BME280;37448;51.588;7.248;2023-03-19T09:45:14;100773.84;;;11.02;98.73
51359;BME280;37448;51.588;7.248;2023-03-19T09:47:36;100772.94;;;11.03;97.77
51359;BME280;37448;51.588;7.248;2023-03-19T09:49:42;100774.78;;;10.98;94.09
51359;BME280;37448;51.588;7.248;2023-03-19T09:51:48;100783.28;;;11.08;94.08
51359;BME280;37448;51.588;7.248;2023-03-19T09:54:05;100778.75;;;11.16;94.90
51359;BME280;37448;51.588;7.248;2023-03-19T09:56:06;100784.75;;;11.19;94.06
51359;BME280;37448;51.588;7.248;2023-03-19T09:58:14;100790.00;;;11.19;93.32
51359;BME280;37448;51.588;7.248;2023-03-19T10:00:23;100785.56;;;11.23;93.55
51359;BME280;37448;51.588;7.248;2023-03-19T10:02:40;100785.47;;;11.28;94.87
51359;BME280;37448;51.588;7.248;2023-03-19T10:05:10;100789.97;;;11.21;90.11
51359;BME280;37448;51.588;7.248;2023-03-19T10:07:25;100789.09;;;11.20;91.36
51359;BME280;37448;51.588;7.248;2023-03-19T10:16:25;100795.53;;;11.45;93.29
51359;BME280;37448;51.588;7.248;2023-03-19T10:18:32;100785.81;;;11.52;94.87
51359;BME280;37448;51.588;7.248;2023-03-19T10:25:44;100795.00;;;11.68;93.78
51359;BME280;37448;51.588;7.248;2023-03-19T10:27:46;100788.19;;;11.62;90.23
51359;BME280;37448;51.588;7.248;2023-03-19T10:29:49;100799.34;;;11.69;88.87
51359;BME280;37448;51.588;7.248;2023-03-19T10:34:27;100796.91;;;11.99;90.63
51359;BME280;37448;51.588;7.248;2023-03-19T10:36:34;100798.63;;;12.00;88.17
51359;BME280;37448;51.588;7.248;2023-03-19T10:38:41;100800.28;;;12.04;88.11
51359;BME280;37448;51.588;7.248;2023-03-19T10:40:50;100798.56;;;12.03;86.57
51359;BME280;37448;51.588;7.248;2023-03-19T10:43:16;100801.84;;;12.12;89.07
51359;BME280;37448;51.588;7.248;2023-03-19T10:45:31;100798.25;;;12.16;89.00
51359;BME280;37448;51.588;7.248;2023-03-19T10:47:37;100807.69;;;12.22;89.13
51359;BME280;37448;51.588;7.248;2023-03-19T10:49:38;100800.66;;;12.25;89.04
51359;BME280;37448;51.588;7.248;2023-03-19T10:51:43;100806.44;;;12.37;90.05
51359;BME280;37448;51.588;7.248;2023-03-19T10:53:44;100810.13;;;12.29;87.02
51359;BME280;37448;51.588;7.248;2023-03-19T10:55:58;100814.06;;;12.46;91.26
51359;BME280;37448;51.588;7.248;2023-03-19T10:58:15;100813.31;;;12.41;86.73
51359;BME280;37448;51.588;7.248;2023-03-19T11:00:24;100806.78;;;12.57;91.36
51359;BME280;37448;51.588;7.248;2023-03-19T11:02:26;100800.44;;;12.64;88.86
51359;BME280;37448;51.588;7.248;2023-03-19T11:04:31;100800.91;;;12.81;87.75
51359;BME280;37448;51.588;7.248;2023-03-19T11:06:34;100799.69;;;12.92;88.92